Time;durP1;ratioP1;P1;durP2;ratioP2;P2;SDS_P1;SDS_P2;PMS_P1;PMS_P2;Temp;Humidity;BMP_temperature;BMP_pressure;BME280_temperature;BME280_humidity;BME280_pressure;Samples;Min_cycle;Max_cycle;Signal;HPM_P1;HPM_P2
2022/11/03 00:01:40;;;;;;;12.00;5.20;;;;;;;20.34;63.83;100684.81;5037130;28;20409;-67
2022/11/03 00:04:06;;;;;;;14.30;5.40;;;;;;;20.32;63.98;100686.41;5082566;28;20440;-67
2022/11/03 00:06:32;;;;;;;10.30;5.37;;;;;;;20.33;64.00;100674.56;5089918;28;20780;-67
2022/11/03 00:08:58;;;;;;;13.20;5.60;;;;;;;20.32;63.84;100681.47;5071309;28;20409;-67
2022/11/03 00:11:24;;;;;;;9.00;5.37;;;;;;;20.34;64.12;100683.97;5071261;28;20167;-67
2022/11/03 00:13:49;;;;;;;8.60;5.00;;;;;;;20.32;63.74;100674.94;5070954;28;20413;-67
2022/11/03 00:16:14;;;;;;;11.13;5.33;;;;;;;20.30;63.77;100677.34;5071236;28;20160;-67
2022/11/03 00:18:40;;;;;;;10.80;5.50;;;;;;;20.34;63.89;100673.34;5070916;28;20198;-67
2022/11/03 00:21:09;;;;;;;8.53;5.07;;;;;;;20.33;64.09;100665.13;5052928;28;20183;-67
2022/11/03 00:23:39;;;;;;;8.60;5.00;;;;;;;20.32;64.22;100667.16;5053066;28;20179;-67
2022/11/03 00:26:15;;;;;;;8.73;4.70;;;;;;;20.30;63.96;100665.88;5070703;28;20413;-67
2022/11/03 00:28:41;;;;;;;8.13;5.00;;;;;;;20.33;64.21;100668.81;5050972;28;20921;-67
2022/11/03 00:31:09;;;;;;;9.80;5.30;;;;;;;20.31;64.03;100671.22;5049746;28;20410;-67
2022/11/03 00:33:35;;;;;;;10.67;4.73;;;;;;;20.27;64.18;100670.34;5033352;28;20438;-67
2022/11/03 00:36:00;;;;;;;8.60;4.60;;;;;;;20.29;64.14;100658.50;5032894;28;20434;-67
2022/11/03 00:38:27;;;;;;;8.23;4.70;;;;;;;20.27;64.33;100653.13;5050189;28;20206;-67
2022/11/03 00:41:00;;;;;;;8.10;4.73;;;;;;;20.26;64.46;100648.63;5052957;28;20584;-67
2022/11/03 00:43:26;;;;;;;7.63;4.60;;;;;;;20.26;64.44;100659.28;5071017;28;20813;-67
2022/11/03 00:45:52;;;;;;;7.70;4.70;;;;;;;20.29;64.41;100647.84;5049170;28;20426;-67
2022/11/03 00:48:29;;;;;;;9.60;5.33;;;;;;;20.28;64.16;100654.81;5059777;28;20471;-67
2022/11/03 00:51:07;;;;;;;6.77;4.07;;;;;;;20.27;64.28;100653.13;5070354;28;20167;-67
2022/11/03 00:53:33;;;;;;;7.67;4.30;;;;;;;20.26;64.51;100650.66;5073223;28;20495;-67
2022/11/03 00:55:59;;;;;;;8.40;5.03;;;;;;;20.26;64.56;100660.09;5040288;28;20410;-67
2022/11/03 00:58:25;;;;;;;6.43;4.50;;;;;;;20.28;64.39;100663.41;5040176;28;20449;-67
2022/11/03 01:00:57;;;;;;;8.30;5.00;;;;;;;20.27;64.41;100664.59;5074296;28;20212;-67
2022/11/03 01:03:22;;;;;;;6.90;4.10;;;;;;;20.26;64.37;100674.41;5040830;28;20535;-67
2022/11/03 01:08:32;;;;;;;10.60;4.60;;;;;;;20.25;64.60;100675.63;5059338;28;20572;-67
2022/11/03 01:13:53;;;;;;;8.63;5.07;;;;;;;20.27;64.63;100670.34;5057447;28;20467;-67
2022/11/03 01:16:18;;;;;;;6.60;4.60;;;;;;;20.25;64.49;100667.03;5074196;28;20421;-67
2022/11/03 01:18:44;;;;;;;7.97;4.30;;;;;;;20.23;64.45;100655.13;5055764;28;20258;-67
2022/11/03 01:21:09;;;;;;;6.90;4.40;;;;;;;20.25;64.39;100646.97;5038559;28;20662;-67
2022/11/03 01:23:34;;;;;;;7.70;4.67;;;;;;;20.23;64.57;100654.28;5055357;28;20179;-68
2022/11/03 01:26:07;;;;;;;7.80;4.60;;;;;;;20.20;64.67;100644.41;5055353;28;20179;-67
2022/11/03 01:28:36;;;;;;;8.17;4.70;;;;;;;20.20;64.38;100647.28;5073451;28;20171;-67
2022/11/03 01:31:03;;;;;;;8.20;4.63;;;;;;;20.21;64.77;100633.78;5073257;28;20425;-67
2022/11/03 01:33:28;;;;;;;6.77;4.07;;;;;;;20.21;64.44;100628.88;5073783;28;20416;-67
2022/11/03 01:35:54;;;;;;;7.50;4.90;;;;;;;20.21;64.42;100630.94;5056028;28;20790;-67
2022/11/03 01:38:19;;;;;;;8.20;4.93;;;;;;;20.19;64.59;100619.00;5073758;28;20593;-67
2022/11/03 01:40:45;;;;;;;10.73;4.40;;;;;;;20.19;64.52;100614.09;5055960;28;20614;-67
2022/11/03 01:43:16;;;;;;;7.57;4.70;;;;;;;20.21;64.82;100623.13;5073857;28;20232;-67
2022/11/03 01:45:42;;;;;;;7.50;4.30;;;;;;;20.21;64.39;100614.53;5073719;28;20170;-67
2022/11/03 01:48:08;;;;;;;8.00;4.60;;;;;;;20.20;64.45;100623.50;5073836;28;20508;-67
2022/11/03 01:50:33;;;;;;;8.30;4.77;;;;;;;20.18;64.83;100612.47;5055777;28;20159;-67
2022/11/03 01:52:59;;;;;;;7.97;4.53;;;;;;;20.18;64.70;100606.72;5055411;28;20788;-67
2022/11/03 01:55:29;;;;;;;6.57;3.97;;;;;;;20.20;64.81;100600.56;5038880;28;20265;-67
2022/11/03 01:58:18;;;;;;;7.13;4.07;;;;;;;20.15;64.76;100601.75;5035924;28;20234;-67
2022/11/03 02:00:44;;;;;;;5.80;4.00;;;;;;;20.16;64.99;100602.59;5035872;28;20522;-67
2022/11/03 02:03:10;;;;;;;7.17;4.20;;;;;;;20.16;64.83;100603.38;5066353;23;20509;-77
2022/11/03 02:05:35;;;;;;;7.73;4.50;;;;;;;20.15;64.94;100601.75;5050444;28;20411;-76
2022/11/03 02:08:09;;;;;;;7.07;4.20;;;;;;;20.18;64.80;100597.28;5027491;28;20270;-77
2022/11/03 02:10:36;;;;;;;9.40;4.17;;;;;;;20.13;64.68;100595.59;5050300;28;20603;-76
2022/11/03 02:13:02;;;;;;;6.80;4.23;;;;;;;20.14;64.64;100582.91;5050390;28;20430;-76
2022/11/03 02:15:27;;;;;;;5.87;4.00;;;;;;;20.17;64.73;100578.44;5033834;28;20414;-76
2022/11/03 02:17:53;;;;;;;7.90;4.20;;;;;;;20.14;64.76;100565.69;5050430;28;20948;-76
2022/11/03 02:20:25;;;;;;;6.00;3.80;;;;;;;20.13;64.86;100564.03;5036589;28;20172;-77
2022/11/03 02:23:13;;;;;;;6.47;4.53;;;;;;;20.12;64.99;100553.78;5066620;28;20164;-77
2022/11/03 02:25:52;;;;;;;5.33;3.90;;;;;;;20.13;64.76;100548.88;5050197;28;20398;-76
2022/11/03 02:28:24;;;;;;;6.50;4.13;;;;;;;20.13;64.86;100541.13;5065836;28;20398;-76
2022/11/03 02:30:56;;;;;;;6.30;4.03;;;;;;;20.12;64.35;100539.44;5049376;28;20402;-75
2022/11/03 02:33:34;;;;;;;7.87;4.27;;;;;;;20.13;64.95;100541.13;5049497;28;20829;-77
2022/11/03 02:36:13;;;;;;;8.97;4.87;;;;;;;20.12;64.90;100542.31;5048693;28;20823;-75
2022/11/03 02:38:53;;;;;;;6.80;4.57;;;;;;;20.14;65.07;100537.03;5049349;28;20548;-76
2022/11/03 02:41:18;;;;;;;7.43;3.93;;;;;;;20.13;64.90;100531.69;5048619;28;20462;-76
2022/11/03 02:43:44;;;;;;;5.60;3.40;;;;;;;20.10;64.82;100527.53;5049362;28;20422;-76
2022/11/03 02:46:10;;;;;;;6.07;4.30;;;;;;;20.10;64.94;100529.56;5049052;28;20180;-77
2022/11/03 02:48:36;;;;;;;6.77;4.17;;;;;;;20.10;65.17;100518.09;5066466;28;20164;-77
2022/11/03 02:51:02;;;;;;;6.30;4.23;;;;;;;20.10;64.82;100503.78;5066718;28;20210;-76
2022/11/03 02:53:27;;;;;;;6.40;4.10;;;;;;;20.09;64.94;100505.84;5032695;28;20203;-77
2022/11/03 02:56:02;;;;;;;7.17;4.40;;;;;;;20.06;65.04;100495.09;5049922;28;20418;-76
2022/11/03 02:58:36;;;;;;;6.70;4.40;;;;;;;20.08;65.08;100494.75;5048875;28;20188;-76
2022/11/03 03:01:23;;;;;;;6.37;3.77;;;;;;;20.06;64.97;100500.03;5048809;28;20478;-76
2022/11/03 03:03:51;;;;;;;7.93;3.80;;;;;;;20.05;65.01;100487.72;5014893;28;20488;-77
2022/11/03 03:06:21;;;;;;;6.87;3.97;;;;;;;20.04;65.36;100485.22;5028308;28;20415;-77
2022/11/03 03:08:49;;;;;;;7.73;4.37;;;;;;;20.05;65.05;100475.41;4990348;28;20413;-77
2022/11/03 03:11:15;;;;;;;6.07;3.93;;;;;;;20.03;65.08;100469.25;4974225;28;20432;-77
2022/11/03 03:13:42;;;;;;;6.40;3.60;;;;;;;20.05;64.95;100463.94;4992045;28;20428;-76
2022/11/03 03:16:11;;;;;;;4.43;3.30;;;;;;;20.04;65.12;100457.41;4989392;28;20561;-77
2022/11/03 03:18:51;;;;;;;6.50;4.23;;;;;;;20.04;65.10;100450.84;4990244;28;20539;-75
2022/11/03 03:21:25;;;;;;;5.70;3.90;;;;;;;20.03;65.23;100452.06;4975158;28;20437;-74
2022/11/03 03:23:57;;;;;;;5.80;3.60;;;;;;;20.03;65.14;100452.06;4989418;28;20507;-74
2022/11/03 03:26:36;;;;;;;5.93;3.47;;;;;;;20.03;65.09;100450.03;4989758;28;20924;-73
2022/11/03 03:29:05;;;;;;;6.43;3.70;;;;;;;20.02;65.22;100445.50;4990140;28;20405;-75
2022/11/03 03:31:32;;;;;;;5.83;3.53;;;;;;;20.06;64.99;100439.84;4974396;28;20996;-75
2022/11/03 03:33:58;;;;;;;6.00;3.93;;;;;;;20.04;65.12;100443.06;4973945;28;20474;-74
2022/11/03 03:36:23;;;;;;;5.03;3.30;;;;;;;20.03;65.14;100438.56;4989871;28;21279;-75
2022/11/03 03:38:51;;;;;;;5.43;3.80;;;;;;;20.03;64.96;100438.56;4992800;28;20247;-75
2022/11/03 03:41:20;;;;;;;5.03;3.50;;;;;;;20.02;65.04;100425.44;5009152;28;20612;-75
2022/11/03 03:43:56;;;;;;;5.43;3.60;;;;;;;20.02;65.21;100424.63;4993676;28;20465;-75
2022/11/03 03:46:22;;;;;;;5.00;3.50;;;;;;;19.99;65.00;100414.75;4992772;28;20411;-75
2022/11/03 03:48:48;;;;;;;6.30;4.03;;;;;;;20.00;65.13;100421.28;4992917;28;20444;-75
2022/11/03 03:51:14;;;;;;;4.90;3.50;;;;;;;19.97;65.05;100422.91;4993005;28;20443;-75
2022/11/03 03:53:39;;;;;;;5.60;3.63;;;;;;;20.04;64.99;100419.31;4993216;28;20980;-75
2022/11/03 03:56:05;;;;;;;4.57;3.17;;;;;;;20.01;65.09;100414.38;5009047;28;20400;-75
2022/11/03 03:58:31;;;;;;;5.90;3.93;;;;;;;19.99;65.06;100411.88;4992688;28;20268;-77
2022/11/03 04:00:56;;;;;;;5.80;3.47;;;;;;;19.98;65.27;100404.50;4992486;28;20667;-75
2022/11/03 04:03:25;;;;;;;6.10;3.63;;;;;;;19.98;65.26;100410.25;5040677;28;20285;-75
2022/11/03 04:05:52;;;;;;;5.03;3.43;;;;;;;19.98;64.97;100401.66;5081579;28;20210;-75
2022/11/03 04:08:18;;;;;;;6.07;3.53;;;;;;;19.97;65.14;100410.63;5051811;28;20449;-75
2022/11/03 04:24:37;;;;;;;5.20;3.40;;;;;;;19.96;65.10;100409.78;5072271;28;20800;-75
2022/11/03 04:27:31;;;;;;;5.77;3.53;;;;;;;19.96;65.13;100411.84;5066991;28;20425;-75
2022/11/03 04:30:18;;;;;;;4.50;3.10;;;;;;;19.97;65.04;100404.91;5085271;28;20246;-75
2022/11/03 04:32:44;;;;;;;5.57;3.27;;;;;;;19.97;65.15;100404.91;5068492;28;20413;-75
2022/11/03 04:35:21;;;;;;;4.87;3.03;;;;;;;19.95;65.49;100396.69;5063230;28;20418;-75
2022/11/03 04:37:53;;;;;;;4.60;2.90;;;;;;;19.96;65.38;100404.06;5064495;28;20458;-75
2022/11/03 04:40:18;;;;;;;4.63;2.87;;;;;;;19.95;65.28;100399.53;5048093;28;20414;-76
2022/11/03 04:42:44;;;;;;;5.23;3.40;;;;;;;19.97;65.13;100404.91;5064878;28;20812;-75
2022/11/03 04:45:27;;;;;;;6.43;3.57;;;;;;;19.96;65.08;100401.19;5047713;28;20199;-75
2022/11/03 04:47:52;;;;;;;5.03;3.50;;;;;;;19.93;64.61;100393.38;5047596;28;20175;-75
2022/11/03 04:50:19;;;;;;;3.97;2.87;;;;;;;19.93;65.38;100381.94;5047347;28;20508;-75
2022/11/03 04:52:46;;;;;;;4.57;3.00;;;;;;;19.97;65.05;100374.19;5030358;28;20574;-75
2022/11/03 04:55:15;;;;;;;5.20;2.83;;;;;;;19.93;65.28;100379.06;5047095;28;20900;-75
2022/11/03 04:57:41;;;;;;;5.07;3.27;;;;;;;19.93;65.32;100370.47;5047038;28;21286;-75
2022/11/03 05:00:18;;;;;;;5.70;3.50;;;;;;;19.93;65.16;100372.50;5063872;28;20512;-75
2022/11/03 05:02:44;;;;;;;4.60;3.33;;;;;;;19.94;65.10;100374.97;5064095;28;20445;-75
2022/11/03 05:05:20;;;;;;;5.27;3.47;;;;;;;19.97;65.19;100371.31;5066889;28;21046;-75
2022/11/03 05:07:47;;;;;;;3.90;2.83;;;;;;;19.93;65.24;100364.75;5071528;28;20483;-74
2022/11/03 05:10:18;;;;;;;4.20;2.73;;;;;;;19.93;65.10;100361.03;5047497;28;20846;-75
2022/11/03 05:12:44;;;;;;;5.93;3.20;;;;;;;19.92;65.22;100351.59;5014629;28;20425;-75
2022/11/03 05:15:22;;;;;;;4.40;2.73;;;;;;;19.93;65.15;100347.53;5032721;28;20407;-76
2022/11/03 05:17:47;;;;;;;5.00;3.70;;;;;;;19.91;65.25;100335.63;5049117;28;20492;-76
2022/11/03 05:20:26;;;;;;;5.00;3.40;;;;;;;19.92;65.49;100325.00;5047862;28;20410;-76
2022/11/03 05:22:51;;;;;;;5.50;3.30;;;;;;;19.93;65.17;100324.63;5063812;28;20164;-77
2022/11/03 05:25:34;;;;;;;5.80;3.10;;;;;;;19.93;65.08;100324.63;5063881;28;20429;-76
2022/11/03 05:27:59;;;;;;;5.43;2.83;;;;;;;19.90;65.24;100331.13;5048484;28;20172;-76
2022/11/03 05:30:24;;;;;;;4.20;2.90;;;;;;;19.91;65.29;100327.03;5031278;28;20463;-77
2022/11/03 05:32:50;;;;;;;5.00;3.10;;;;;;;19.94;65.03;100329.13;5030883;28;20667;-76
2022/11/03 05:35:21;;;;;;;5.20;3.27;;;;;;;19.92;65.40;100325.81;5047764;28;20246;-76
2022/11/03 05:37:46;;;;;;;4.33;2.97;;;;;;;19.94;65.36;100325.44;5011067;28;20192;-76
2022/11/03 05:40:24;;;;;;;4.27;2.93;;;;;;;19.94;65.05;100314.81;5037182;28;20975;-76
2022/11/03 05:42:57;;;;;;;6.13;3.20;;;;;;;19.94;65.33;100313.97;5067465;28;20181;-76
2022/11/03 05:45:30;;;;;;;5.10;3.23;;;;;;;19.94;65.08;100313.97;5067095;28;20414;-77
2022/11/03 05:47:55;;;;;;;8.43;3.07;;;;;;;19.94;65.05;100308.22;5067531;28;20425;-73
2022/11/03 05:50:24;;;;;;;4.07;2.53;;;;;;;19.91;65.36;100303.31;5050880;28;20820;-76
2022/11/03 05:52:56;;;;;;;3.97;2.60;;;;;;;19.93;65.29;100286.53;5052336;28;20160;-77
2022/11/03 05:55:34;;;;;;;4.63;3.03;;;;;;;19.93;65.15;100290.22;5067624;28;20420;-77
2022/11/03 05:58:38;;;;;;;4.43;2.80;;;;;;;19.92;65.09;100290.63;5049756;28;21111;-73
2022/11/03 06:01:14;;;;;;;6.33;3.60;;;;;;;19.64;64.17;100279.63;5047397;28;20477;-73
2022/11/03 06:03:40;;;;;;;11.97;4.60;;;;;;;19.59;60.47;100279.13;5044445;28;20925;-77
2022/11/03 06:06:20;;;;;;;10.90;6.50;;;;;;;19.91;57.97;100272.59;5030077;28;20435;-76
2022/11/03 06:08:45;;;;;;;10.37;5.60;;;;;;;20.02;56.61;100269.88;5032320;28;20214;-77
2022/11/03 06:11:19;;;;;;;14.70;4.53;;;;;;;19.88;54.64;100273.38;5053008;28;20422;-74
2022/11/03 06:13:44;;;;;;;8.60;4.50;;;;;;;19.80;53.33;100268.78;5066243;28;20192;-80
2022/11/03 06:16:39;;;;;;;8.00;3.50;;;;;;;19.78;52.46;100264.66;5048868;28;20426;-77
2022/11/03 06:19:20;;;;;;;12.63;4.07;;;;;;;19.90;52.78;100262.34;5063645;28;20294;-80
2022/11/03 06:21:48;;;;;;;6.83;3.27;;;;;;;20.04;51.96;100256.78;5067928;28;20488;-82
2022/11/03 06:24:14;;;;;;;11.17;4.20;;;;;;;20.14;53.17;100255.28;5033776;28;20430;-80
2022/11/03 06:26:39;;;;;;;8.60;4.10;;;;;;;20.25;53.16;100254.19;5036442;28;20441;-78
2022/11/03 06:29:10;;;;;;;7.00;3.90;;;;;;;20.57;53.53;100245.91;5049110;28;20493;-80
2022/11/03 06:31:36;;;;;;;8.37;3.10;;;;;;;20.66;53.94;100244.31;5064616;28;20672;-84
2022/11/03 06:34:17;;;;;;;8.50;3.97;;;;;;;20.61;54.10;100241.81;5048832;28;20426;-76
2022/11/03 06:36:42;;;;;;;8.03;3.87;;;;;;;20.54;55.52;100232.34;5050345;28;20187;-76
2022/11/03 06:39:12;;;;;;;6.83;4.03;;;;;;;20.47;56.23;100238.81;5015310;28;20458;-76
2022/11/03 06:41:38;;;;;;;7.10;3.47;;;;;;;20.42;56.92;100250.66;5065576;28;20203;-76
2022/11/03 06:44:19;;;;;;;8.83;3.17;;;;;;;20.27;56.65;100243.13;5035325;28;20488;-79
2022/11/03 06:46:45;;;;;;;6.60;3.13;;;;;;;20.28;57.41;100244.81;5048211;28;20438;-77
2022/11/03 06:49:31;;;;;;;7.27;3.30;;;;;;;20.26;56.57;100252.16;5016832;28;20437;-78
2022/11/03 06:51:57;;;;;;;6.60;3.10;;;;;;;20.14;56.57;100244.66;5041785;28;20187;-79
2022/11/03 06:54:23;;;;;;;4.43;2.90;;;;;;;20.08;56.07;100242.53;5033104;28;20886;-78
2022/11/03 06:56:48;;;;;;;9.00;3.40;;;;;;;20.04;55.28;100259.66;5029550;28;20442;-83
2022/11/03 06:59:14;;;;;;;5.23;3.20;;;;;;;20.04;54.48;100256.78;5045698;28;20258;-84
2022/11/03 07:01:40;;;;;;;11.70;3.30;;;;;;;20.07;54.25;100238.81;5057553;28;20289;-84
2022/11/03 07:04:28;;;;;;;4.60;3.07;;;;;;;20.10;54.82;100232.31;5050876;28;20261;-82
2022/11/03 07:06:56;;;;;;;5.00;3.00;;;;;;;20.08;55.09;100228.19;5056734;28;20207;-82
2022/11/03 07:09:24;;;;;;;4.50;3.07;;;;;;;20.07;55.28;100237.97;5053577;28;20438;-79
2022/11/03 07:11:52;;;;;;;5.43;3.10;;;;;;;20.07;55.89;100233.09;5030615;28;20484;-81
2022/11/03 07:14:22;;;;;;;5.37;3.17;;;;;;;20.05;55.61;100226.91;5048427;28;20426;-76
2022/11/03 07:16:49;;;;;;;10.10;3.10;;;;;;;20.01;55.58;100205.97;5031530;28;20445;-76
2022/11/03 07:19:21;;;;;;;4.93;3.20;;;;;;;20.02;56.71;100201.09;5041926;28;20458;-79
2022/11/03 07:21:58;;;;;;;8.67;3.17;;;;;;;20.04;56.52;100188.00;5049638;28;20584;-79
2022/11/03 07:24:28;;;;;;;5.60;3.03;;;;;;;20.02;56.84;100190.44;5062109;28;20426;-79
2022/11/03 07:27:18;;;;;;;7.20;3.57;;;;;;;20.02;56.99;100186.75;5044811;28;20775;-79
2022/11/03 07:29:44;;;;;;;5.27;2.90;;;;;;;20.03;56.88;100183.50;5040539;28;20456;-80
2022/11/03 07:32:18;;;;;;;4.10;2.60;;;;;;;20.02;57.40;100178.97;5014628;28;20422;-78
2022/11/03 07:34:43;;;;;;;4.63;2.97;;;;;;;20.04;57.43;100173.69;5045102;28;20202;-80
2022/11/03 07:37:13;;;;;;;6.90;3.30;;;;;;;20.02;57.62;100178.16;5031459;28;20510;-78
2022/11/03 07:39:38;;;;;;;5.23;2.93;;;;;;;20.00;58.19;100181.41;5045898;28;20196;-79
2022/11/03 07:42:12;;;;;;;4.73;2.67;;;;;;;20.03;57.98;100183.50;5025333;28;20434;-79
2022/11/03 07:44:37;;;;;;;5.50;2.50;;;;;;;20.02;58.32;100183.88;5017191;28;20183;-77
2022/11/03 07:47:05;;;;;;;4.83;2.53;;;;;;;20.00;58.40;100184.28;5028061;28;20798;-76
2022/11/03 07:49:30;;;;;;;6.27;2.70;;;;;;;20.00;58.58;100180.56;5019111;28;20210;-80
2022/11/03 07:51:56;;;;;;;6.20;3.07;;;;;;;19.99;58.64;100179.78;5024779;28;20426;-79
2022/11/03 07:54:24;;;;;;;7.33;2.83;;;;;;;19.99;58.83;100176.91;5044307;28;20245;-78
2022/11/03 07:56:58;;;;;;;7.33;3.37;;;;;;;19.98;59.13;100180.16;5035627;28;20658;-79
2022/11/03 07:59:36;;;;;;;5.50;2.87;;;;;;;19.97;59.25;100176.44;5041209;28;20460;-78
2022/11/03 08:02:01;;;;;;;5.90;2.67;;;;;;;20.00;59.44;100174.84;5012177;28;20497;-78
2022/11/03 08:04:31;;;;;;;6.50;2.43;;;;;;;19.98;59.48;100158.06;5042522;28;20489;-77
2022/11/03 08:06:56;;;;;;;3.67;2.80;;;;;;;19.97;59.63;100165.00;5025107;28;20192;-79
2022/11/03 08:09:22;;;;;;;3.80;2.50;;;;;;;19.96;59.88;100156.81;5045946;28;20757;-79
2022/11/03 08:11:48;;;;;;;5.17;3.17;;;;;;;19.96;60.20;100148.22;5041520;28;20180;-78
2022/11/03 08:14:13;;;;;;;6.63;2.90;;;;;;;19.97;59.91;100147.00;5028129;28;20190;-78
2022/11/03 08:16:39;;;;;;;5.17;3.10;;;;;;;19.95;59.93;100135.91;5043132;28;20898;-80
2022/11/03 08:19:04;;;;;;;4.23;2.70;;;;;;;19.95;59.72;100137.94;5014006;28;20184;-80
2022/11/03 08:21:30;;;;;;;6.43;2.93;;;;;;;19.95;59.92;100133.06;5058122;28;20180;-77
2022/11/03 08:23:55;;;;;;;5.10;3.13;;;;;;;19.98;59.80;100131.44;5023769;28;20183;-78
2022/11/03 08:26:21;;;;;;;5.33;2.90;;;;;;;19.95;60.34;100129.34;5043773;28;20183;-83
2022/11/03 08:28:46;;;;;;;4.50;2.50;;;;;;;19.95;60.17;100132.22;5043300;28;20190;-79
2022/11/03 08:31:12;;;;;;;4.60;2.33;;;;;;;19.96;59.84;100128.97;5044012;28;20191;-84
2022/11/03 08:33:37;;;;;;;8.83;2.43;;;;;;;19.97;60.06;100119.16;5044545;28;20179;-78
2022/11/03 08:36:03;;;;;;;5.10;2.73;;;;;;;19.97;60.26;100118.34;5026005;28;20198;-78
2022/11/03 08:38:28;;;;;;;5.47;2.70;;;;;;;19.95;60.32;100133.06;5041221;28;20249;-80
2022/11/03 08:40:54;;;;;;;4.33;2.60;;;;;;;19.95;60.36;100130.19;5044941;28;20172;-80
2022/11/03 08:43:20;;;;;;;5.13;2.50;;;;;;;19.95;60.40;100132.22;5029241;28;20195;-79
2022/11/03 08:45:45;;;;;;;4.80;2.60;;;;;;;19.95;60.28;100129.34;5008039;28;20278;-78
2022/11/03 08:48:11;;;;;;;3.40;2.20;;;;;;;19.94;60.54;100131.41;5015480;28;20168;-79
2022/11/03 08:50:37;;;;;;;4.77;2.80;;;;;;;19.99;60.53;100124.47;5042318;28;20849;-77
2022/11/03 08:53:02;;;;;;;3.07;2.13;;;;;;;19.96;60.81;100117.50;5024892;28;20183;-81
2022/11/03 08:55:28;;;;;;;4.60;2.40;;;;;;;19.94;60.84;100114.22;5027752;28;20188;-80
2022/11/03 08:57:53;;;;;;;4.40;2.20;;;;;;;19.93;60.89;100114.59;5024571;28;20203;-78
2022/11/03 09:00:19;;;;;;;5.43;2.50;;;;;;;19.96;60.95;100113.84;5045448;28;20183;-74
2022/11/03 09:02:44;;;;;;;3.07;2.30;;;;;;;19.92;61.17;100110.91;5018334;28;20231;-81
2022/11/03 09:05:11;;;;;;;3.30;1.97;;;;;;;19.92;61.16;100107.25;5024757;28;20253;-80
2022/11/03 09:07:40;;;;;;;3.47;2.33;;;;;;;19.95;60.99;100098.66;5020488;28;20710;-79
2022/11/03 09:10:08;;;;;;;3.47;2.20;;;;;;;19.91;61.46;100089.22;5044891;28;20437;-78
2022/11/03 09:12:35;;;;;;;4.20;2.50;;;;;;;19.90;61.41;100078.97;5026455;28;20484;-81
2022/11/03 09:15:00;;;;;;;3.57;2.40;;;;;;;19.91;61.34;100062.63;5052731;28;20849;-81
2022/11/03 09:17:26;;;;;;;4.27;2.00;;;;;;;19.89;61.49;100063.00;5032195;28;20476;-80
2022/11/03 09:19:51;;;;;;;5.50;2.77;;;;;;;19.91;61.44;100063.44;5046640;28;20199;-81
2022/11/03 09:22:17;;;;;;;4.37;2.30;;;;;;;19.89;61.40;100065.88;5049206;28;20187;-79
2022/11/03 09:24:42;;;;;;;3.97;2.40;;;;;;;19.88;61.24;100061.38;5046492;28;20195;-80
2022/11/03 09:27:08;;;;;;;4.03;2.60;;;;;;;19.88;61.61;100072.81;5027690;28;20196;-81
2022/11/03 09:29:33;;;;;;;4.67;2.80;;;;;;;19.90;61.63;100058.91;5045913;28;20179;-80
2022/11/03 09:31:59;;;;;;;4.00;2.07;;;;;;;19.90;61.61;100056.06;5046524;28;20191;-77
2022/11/03 09:34:24;;;;;;;3.73;2.20;;;;;;;19.89;61.43;100054.41;5019039;28;20191;-79
2022/11/03 09:36:50;;;;;;;4.20;2.57;;;;;;;19.89;61.79;100065.03;5020181;28;20184;-80
2022/11/03 09:39:16;;;;;;;5.10;2.70;;;;;;;19.85;62.01;100044.13;5029311;28;20215;-80
2022/11/03 09:41:41;;;;;;;4.40;2.70;;;;;;;19.86;62.01;100052.31;5045062;28;20429;-79
2022/11/03 09:44:07;;;;;;;5.60;2.30;;;;;;;19.83;62.04;100046.56;5046954;28;20198;-78
2022/11/03 09:46:34;;;;;;;4.17;2.77;;;;;;;19.84;61.94;100049.06;5045062;28;20253;-80
2022/11/03 09:48:59;;;;;;;3.93;2.20;;;;;;;19.84;62.19;100040.47;5044751;28;20492;-80
2022/11/03 09:51:25;;;;;;;3.40;2.60;;;;;;;19.83;62.35;100035.13;5045074;28;20422;-81
2022/11/03 09:53:57;;;;;;;5.30;2.37;;;;;;;19.85;62.18;100033.50;5044250;28;21053;-80
2022/11/03 09:56:23;;;;;;;3.07;2.17;;;;;;;19.84;62.03;100034.72;5030861;28;20186;-81
2022/11/03 09:58:49;;;;;;;3.40;2.20;;;;;;;19.81;62.34;100024.03;5028326;28;20764;-75
2022/11/03 10:01:14;;;;;;;3.70;2.30;;;;;;;19.81;62.46;100020.38;5047431;28;20430;-81
2022/11/03 10:03:39;;;;;;;2.83;2.10;;;;;;;19.79;62.48;100014.19;5047529;28;20246;-80
2022/11/03 10:06:05;;;;;;;4.10;2.47;;;;;;;19.83;62.34;100018.75;5046350;28;20188;-81
2022/11/03 10:08:32;;;;;;;3.50;2.40;;;;;;;19.81;62.32;100018.31;5045860;28;20971;-79
2022/11/03 10:10:58;;;;;;;2.87;2.17;;;;;;;19.85;62.43;100006.88;5046359;28;20713;-77
2022/11/03 10:13:33;;;;;;;4.40;2.37;;;;;;;19.84;62.34;99996.66;5027841;28;20441;-78
2022/11/03 10:15:59;;;;;;;3.70;2.47;;;;;;;19.82;62.45;99999.09;5011506;28;20198;-76
2022/11/03 10:18:25;;;;;;;4.03;2.47;;;;;;;19.81;62.65;99995.41;5028417;28;20469;-78
2022/11/03 10:20:54;;;;;;;2.97;2.23;;;;;;;19.80;62.70;99987.19;5027616;28;20934;-82
2022/11/03 10:23:19;;;;;;;3.47;2.10;;;;;;;19.85;62.91;99987.66;5043223;28;20434;-78
2022/11/03 10:25:47;;;;;;;4.00;2.37;;;;;;;19.82;62.49;99979.03;5013775;28;20433;-78
2022/11/03 10:28:20;;;;;;;3.83;2.20;;;;;;;19.81;62.66;99983.13;5032846;28;20289;-78
2022/11/03 10:31:00;;;;;;;4.93;2.13;;;;;;;19.81;62.61;99974.53;5043892;28;20421;-80
2022/11/03 10:33:37;;;;;;;3.63;2.37;;;;;;;19.79;62.83;99971.22;5013714;28;20487;-81
2022/11/03 10:36:32;;;;;;;3.37;2.03;;;;;;;19.78;62.92;99961.84;5017616;28;20432;-80
2022/11/03 10:39:00;;;;;;;4.33;2.20;;;;;;;19.81;62.88;99949.56;5027449;28;20551;-79
2022/11/03 10:41:29;;;;;;;5.57;2.53;;;;;;;19.80;62.89;99941.38;5029144;28;20418;-79
2022/11/03 10:44:06;;;;;;;2.73;1.70;;;;;;;19.79;62.79;99939.72;5033897;28;20448;-81
2022/11/03 10:46:32;;;;;;;2.93;2.10;;;;;;;19.79;62.95;99931.13;5043612;28;20782;-79
2022/11/03 10:49:07;;;;;;;4.10;2.10;;;;;;;19.78;63.15;99929.50;5061358;28;20426;-80
2022/11/03 10:51:33;;;;;;;3.23;2.20;;;;;;;19.78;63.00;99915.16;5045942;28;20647;-81
2022/11/03 10:53:58;;;;;;;3.30;2.00;;;;;;;19.76;62.98;99904.09;5045709;28;21074;-81
2022/11/03 10:56:24;;;;;;;2.93;1.90;;;;;;;19.75;63.07;99905.34;5043524;28;20434;-81
2022/11/03 10:58:50;;;;;;;4.47;2.00;;;;;;;19.75;63.47;99905.34;5048286;28;20211;-80
2022/11/03 11:01:16;;;;;;;4.07;2.40;;;;;;;19.75;63.08;99893.88;5045130;28;20182;-80
2022/11/03 11:03:42;;;;;;;3.70;1.97;;;;;;;19.74;63.33;99895.09;5045601;28;20691;-80
2022/11/03 11:06:40;;;;;;;3.30;2.20;;;;;;;19.76;63.20;99880.38;5046265;28;20668;-79
2022/11/03 11:09:08;;;;;;;2.80;1.93;;;;;;;19.77;63.16;99882.81;4969683;28;20449;-79
2022/11/03 11:11:34;;;;;;;4.20;2.03;;;;;;;19.77;63.14;99874.22;5051498;28;20430;-80
2022/11/03 11:14:24;;;;;;;2.90;2.13;;;;;;;19.75;63.36;99875.84;5028545;28;20437;-81
2022/11/03 11:16:51;;;;;;;3.60;2.00;;;;;;;19.74;63.35;99871.34;5047519;28;20179;-79
2022/11/03 11:19:17;;;;;;;2.93;2.20;;;;;;;19.72;63.25;99865.22;5030794;28;20469;-79
2022/11/03 11:21:42;;;;;;;2.90;1.83;;;;;;;19.72;63.47;99871.75;5046830;28;20484;-81
2022/11/03 11:24:11;;;;;;;2.93;1.93;;;;;;;19.74;63.54;99857.03;5037818;28;20201;-80
2022/11/03 11:26:39;;;;;;;5.27;2.20;;;;;;;19.72;63.38;99859.50;5043078;28;20190;-79
2022/11/03 11:29:12;;;;;;;3.10;1.80;;;;;;;19.73;63.60;99849.66;5043106;28;20422;-79
2022/11/03 11:31:41;;;;;;;3.23;2.20;;;;;;;19.72;63.34;99843.09;5047317;28;20958;-79
2022/11/03 11:34:17;;;;;;;2.70;1.93;;;;;;;19.73;63.26;99829.63;5044552;28;20438;-81
2022/11/03 11:36:55;;;;;;;2.77;2.07;;;;;;;19.71;63.39;99830.00;5045000;28;20441;-79
2022/11/03 11:39:26;;;;;;;2.77;1.70;;;;;;;19.73;63.46;99818.16;5065525;28;20477;-78
2022/11/03 11:42:07;;;;;;;3.37;1.83;;;;;;;19.71;63.49;99812.81;5046598;28;20438;-78
2022/11/03 11:44:58;;;;;;;3.40;2.30;;;;;;;19.71;63.33;99818.56;5039855;28;20457;-79
2022/11/03 11:47:30;;;;;;;3.13;1.90;;;;;;;19.70;63.70;99808.31;5043866;28;20496;-79
2022/11/03 11:50:10;;;;;;;3.00;1.97;;;;;;;19.70;63.66;99801.78;5034400;28;20465;-80
2022/11/03 11:52:55;;;;;;;2.97;2.13;;;;;;;19.72;63.41;99797.28;5043121;28;20852;-80
2022/11/03 11:55:27;;;;;;;3.50;2.07;;;;;;;19.70;63.51;99791.16;5058847;28;20477;-80
2022/11/03 11:57:52;;;;;;;2.97;2.17;;;;;;;19.69;63.68;99783.78;5033842;28;20842;-79